Cresskill, New Jersey
Current Conditions -  °F | °C
As of 7:51 AM on Friday 24 Oct 2014 (Local Time) from KTEB Reporting Station
Broken Clouds Broken Clouds  
Wind Chill: 11°   Ceiling: 2400
Heat Index: 11°   Visibility: 10mi
Dew Point:   Wind: 9mph
Humidity: 71%   Direction: 330°NNW
Pressure: 29.8"   Gusts: NA
Location:  40.94°N, 73.96°W
Report Text: KTEB 241151Z 33008KT 10SM BKN024 BKN038 11/06 A2980 RMK AO2 SLP092 60000 70032 T01110061 10111 20100 53005
Loading
Personal Weather Stations






























Interactive Weather Map
Tropical Storm Tracking
New forecast layout! Learn more

10-Day Weather Forecast

Advertisements
Track Severe Weather on mobile